createdAt,value
2018-06-22T00:04:17.491Z,60.80
2018-06-22T00:06:47.007Z,60.80
2018-06-22T00:09:16.580Z,60.90
2018-06-22T00:14:15.528Z,60.90
2018-06-22T00:16:45.084Z,61.00
2018-06-22T00:34:09.597Z,60.90
2018-06-22T00:44:08.248Z,61.00
2018-06-22T00:46:38.100Z,60.80
2018-06-22T00:49:07.635Z,60.90
2018-06-22T00:54:14.370Z,61.00
2018-06-22T01:01:42.658Z,61.00
2018-06-22T01:16:39.777Z,61.00
2018-06-22T01:19:09.521Z,61.10
2018-06-22T01:24:08.124Z,61.10
2018-06-22T01:26:37.672Z,61.20
2018-06-22T01:29:12.625Z,61.00
2018-06-22T01:46:38.214Z,61.40
2018-06-22T01:49:07.723Z,61.30
2018-06-22T01:51:37.258Z,61.30
2018-06-22T02:01:34.076Z,61.50
2018-06-22T02:06:32.757Z,61.50
2018-06-22T02:09:02.287Z,61.70
2018-06-22T02:14:00.914Z,61.50
2018-06-22T02:21:28.632Z,61.70
2018-06-22T02:26:27.257Z,61.60
2018-06-22T02:31:26.028Z,61.20
2018-06-22T02:33:56.059Z,61.00
2018-06-22T02:36:25.581Z,60.70
2018-06-22T02:41:24.812Z,60.30
2018-06-22T02:43:54.319Z,60.00
2018-06-22T02:48:52.941Z,59.60
2018-06-22T02:51:22.471Z,59.30
2018-06-22T02:53:52.066Z,59.20
2018-06-22T03:03:49.226Z,58.50
2018-06-22T03:18:44.212Z,58.00
2018-06-22T03:21:14.201Z,57.90
2018-06-22T03:26:12.813Z,57.80
2018-06-22T03:31:11.411Z,57.70
2018-06-22T03:38:39.101Z,57.70
2018-06-22T03:43:37.710Z,57.60
2018-06-22T03:46:07.247Z,57.60
2018-06-22T03:51:06.058Z,57.60
2018-06-22T03:53:35.602Z,57.60
2018-06-22T03:58:34.255Z,57.60
2018-06-22T04:01:03.800Z,57.70
2018-06-22T04:06:02.431Z,57.70
2018-06-22T04:20:58.198Z,57.70
2018-06-22T04:23:27.737Z,57.80
2018-06-22T04:25:57.281Z,57.80
2018-06-22T04:30:55.921Z,57.80
2018-06-22T04:35:54.570Z,57.90
2018-06-22T04:43:22.259Z,57.90
2018-06-22T04:45:51.879Z,58.00
2018-06-22T04:53:19.552Z,58.00
2018-06-22T04:58:18.210Z,58.00
2018-06-22T05:00:47.775Z,58.00
2018-06-22T05:03:17.323Z,58.20
2018-06-22T05:08:16.026Z,58.30
2018-06-22T05:18:13.256Z,58.40
2018-06-22T05:20:42.836Z,58.40
2018-06-22T05:23:12.388Z,58.40
2018-06-22T05:33:09.185Z,58.40
2018-06-22T05:38:07.850Z,58.40
2018-06-22T05:40:37.596Z,58.50
2018-06-22T05:45:36.246Z,58.50
2018-06-22T05:48:05.791Z,58.50
2018-06-22T05:53:04.584Z,58.50
2018-06-22T05:58:03.262Z,58.60
2018-06-22T06:05:30.995Z,58.50
2018-06-22T06:10:29.609Z,58.70
2018-06-22T06:15:28.242Z,58.40
2018-06-22T06:17:57.797Z,58.40
2018-06-22T06:20:27.346Z,58.40
2018-06-22T06:25:26.029Z,58.50
2018-06-22T06:35:22.847Z,58.30
2018-06-22T06:40:21.506Z,58.20
2018-06-22T06:42:51.117Z,58.10
2018-06-22T06:45:20.666Z,57.90
2018-06-22T06:50:19.311Z,57.70
2018-06-22T06:52:48.840Z,57.80
2018-06-22T07:07:44.088Z,56.50
2018-06-22T07:15:11.930Z,55.30
2018-06-22T07:20:10.669Z,55.20
2018-06-22T07:22:40.275Z,54.80
2018-06-22T07:25:09.830Z,54.60
2018-06-22T07:35:06.855Z,53.40
2018-06-22T07:37:36.429Z,53.10
2018-06-22T07:47:33.711Z,52.10
2018-06-22T07:50:03.254Z,52.00
2018-06-22T07:52:32.862Z,51.90
2018-06-22T07:57:32.048Z,52.40
2018-06-22T08:05:00.211Z,52.40
2018-06-22T08:12:27.994Z,52.50
2018-06-22T08:17:26.673Z,52.20
2018-06-22T08:19:56.223Z,52.20
2018-06-22T08:22:25.777Z,52.10
2018-06-22T08:24:55.345Z,52.40
2018-06-22T08:27:25.377Z,52.10
2018-06-22T08:29:54.974Z,51.90
2018-06-22T08:32:24.517Z,51.90
2018-06-22T08:37:23.261Z,52.00
2018-06-22T08:39:52.835Z,52.00
2018-06-22T08:42:22.477Z,52.20
2018-06-22T08:44:52.021Z,52.30
2018-06-22T08:47:22.237Z,52.40
2018-06-22T08:52:21.030Z,52.60
2018-06-22T08:54:50.588Z,52.50
2018-06-22T09:02:18.360Z,52.60
2018-06-22T09:09:46.126Z,49.30
2018-06-22T09:12:16.133Z,50.70
2018-06-22T09:14:45.668Z,51.10
2018-06-22T09:17:16.296Z,51.40
2018-06-22T09:24:44.107Z,52.50
2018-06-22T09:34:41.424Z,52.00
2018-06-22T09:37:11.058Z,52.00
2018-06-22T09:39:40.734Z,51.70
2018-06-22T09:54:38.000Z,51.70
2018-06-22T09:57:07.599Z,51.60
2018-06-22T10:02:06.336Z,51.60
2018-06-22T10:07:06.786Z,51.30
2018-06-22T10:12:09.228Z,51.40
2018-06-22T10:14:38.932Z,51.40
2018-06-22T10:22:07.543Z,51.20
2018-06-22T10:32:05.150Z,51.40
2018-06-22T10:37:03.801Z,51.30
2018-06-22T10:51:58.979Z,51.60
2018-06-22T10:56:57.656Z,51.50
2018-06-22T10:59:27.434Z,51.60
2018-06-22T11:22:20.634Z,51.90
2018-06-22T11:27:19.473Z,52.20
2018-06-22T11:34:47.240Z,48.00
2018-06-22T11:49:42.584Z,46.20
2018-06-22T11:52:12.131Z,47.40
2018-06-22T11:54:41.695Z,45.60
2018-06-22T11:59:40.738Z,45.90
2018-06-22T12:02:10.299Z,45.30
2018-06-22T12:07:09.572Z,44.90
2018-06-22T12:09:39.142Z,44.40
2018-06-22T12:12:08.682Z,44.00
2018-06-22T12:22:05.540Z,43.30
2018-06-22T12:27:04.628Z,43.20
2018-06-22T12:29:34.181Z,42.20
2018-06-22T12:37:02.441Z,42.60
2018-06-22T12:39:32.023Z,43.20
2018-06-22T12:42:01.511Z,43.50
2018-06-22T12:44:31.531Z,43.70
2018-06-22T12:51:59.318Z,44.00
2018-06-22T13:06:54.568Z,48.30
2018-06-22T13:16:51.429Z,49.10
2018-06-22T13:19:20.980Z,49.50
2018-06-22T13:24:22.185Z,49.40
2018-06-22T13:26:52.110Z,49.50
2018-06-22T13:29:21.649Z,49.60
2018-06-22T13:31:51.200Z,49.70
2018-06-22T13:36:49.851Z,49.90
2018-06-22T13:44:18.165Z,50.50
2018-06-22T13:49:16.862Z,50.70
2018-06-22T13:51:46.411Z,50.50
2018-06-22T14:04:18.327Z,50.80
2018-06-22T14:11:49.755Z,50.80
2018-06-22T14:14:19.318Z,50.80
2018-06-22T14:19:24.508Z,51.00
2018-06-22T14:21:54.053Z,51.00
2018-06-22T14:26:52.674Z,51.20
2018-06-22T14:34:20.411Z,51.30
2018-06-22T14:36:49.966Z,51.50
2018-06-22T14:39:19.511Z,51.50
2018-06-22T14:41:49.040Z,51.60
2018-06-22T14:44:18.570Z,51.70
2018-06-22T14:49:17.230Z,51.60
2018-06-22T14:56:55.812Z,51.70
2018-06-22T15:02:05.357Z,51.60
2018-06-22T15:04:40.443Z,51.60
2018-06-22T15:12:13.605Z,51.70
2018-06-22T15:14:43.231Z,51.70
2018-06-22T15:22:14.632Z,51.90
2018-06-22T15:29:42.460Z,52.10
2018-06-22T15:32:12.317Z,52.00
2018-06-22T15:37:21.854Z,52.10
2018-06-22T15:42:31.345Z,52.20
2018-06-22T15:45:06.280Z,52.20
2018-06-22T15:50:16.192Z,52.30
2018-06-22T15:57:51.370Z,52.40
2018-06-22T16:02:55.569Z,52.40
2018-06-22T16:18:01.721Z,52.50
2018-06-22T16:20:36.561Z,52.60
2018-06-22T16:38:11.690Z,53.10
2018-06-22T16:40:41.244Z,53.00
2018-06-22T16:45:39.900Z,52.80
2018-06-22T16:50:38.543Z,53.00
2018-06-22T17:00:39.796Z,53.10
2018-06-22T17:03:09.400Z,53.10
2018-06-22T17:08:13.486Z,53.50
2018-06-22T17:10:48.363Z,53.60
2018-06-22T17:13:23.245Z,53.60
2018-06-22T17:18:32.882Z,54.00
2018-06-22T17:28:30.021Z,54.10
2018-06-22T17:33:28.709Z,54.40
2018-06-22T17:35:58.473Z,54.60
2018-06-22T17:38:28.005Z,54.70
2018-06-22T17:43:27.033Z,54.40
2018-06-22T17:45:56.632Z,54.30
2018-06-22T17:48:26.449Z,54.20
2018-06-22T17:53:25.124Z,54.20
2018-06-22T17:58:24.349Z,54.30
2018-06-22T18:00:59.654Z,54.40
2018-06-22T18:06:09.109Z,54.30
2018-06-22T18:16:16.324Z,54.20
2018-06-22T18:21:14.982Z,54.10
2018-06-22T18:23:44.563Z,54.20
2018-06-22T18:26:14.153Z,54.20
2018-06-22T18:31:12.831Z,54.20
2018-06-22T18:36:11.469Z,54.30
2018-06-22T18:38:41.037Z,54.20
2018-06-22T18:43:45.037Z,54.20
2018-06-22T18:48:43.768Z,54.30
2018-06-22T18:53:47.900Z,54.30
2018-06-22T19:03:33.421Z,54.30
2018-06-22T19:06:03.041Z,54.40
2018-06-22T19:13:31.490Z,54.50
2018-06-22T19:16:01.067Z,54.40
2018-06-22T19:25:58.101Z,54.60
2018-06-22T19:28:27.659Z,54.60
2018-06-22T19:38:25.216Z,54.60
2018-06-22T19:40:55.021Z,54.60
2018-06-22T19:43:30.033Z,54.60
2018-06-22T19:53:48.948Z,54.70
2018-06-22T19:58:47.590Z,54.70
2018-06-22T20:03:46.241Z,54.80
2018-06-22T20:06:15.791Z,54.80
2018-06-22T20:16:15.785Z,54.80
2018-06-22T20:18:45.276Z,54.80
2018-06-22T20:31:23.671Z,54.80
2018-06-22T20:33:53.271Z,55.00
2018-06-22T20:39:02.887Z,55.00
2018-06-22T20:41:37.693Z,55.00
2018-06-22T20:46:47.197Z,55.00
2018-06-22T20:49:22.122Z,55.00
2018-06-22T21:19:12.274Z,55.00
2018-06-22T21:21:47.289Z,55.00
2018-06-22T21:26:45.929Z,55.10
2018-06-22T21:31:55.364Z,55.00
2018-06-22T21:34:30.246Z,55.10
2018-06-22T21:42:03.566Z,55.20
2018-06-22T21:47:02.222Z,55.20
2018-06-22T21:49:31.989Z,55.30
2018-06-22T21:52:01.559Z,55.30
2018-06-22T22:01:58.667Z,55.20
2018-06-22T22:04:28.463Z,55.30
2018-06-22T22:06:58.356Z,55.30
2018-06-22T22:14:30.488Z,55.30
2018-06-22T22:19:29.562Z,55.30
2018-06-22T22:21:59.181Z,55.30
2018-06-22T22:24:28.730Z,55.30
2018-06-22T22:29:27.417Z,55.40
2018-06-22T22:34:26.874Z,55.40
2018-06-22T22:41:54.630Z,55.30
2018-06-22T22:44:24.203Z,55.40
2018-06-22T22:49:22.937Z,55.40
2018-06-22T22:51:52.488Z,55.50
2018-06-22T23:01:49.752Z,55.50
2018-06-22T23:04:19.293Z,55.50
2018-06-22T23:09:18.231Z,55.50
2018-06-22T23:21:44.354Z,55.60
2018-06-22T23:31:41.157Z,55.70
2018-06-22T23:39:10.207Z,55.80
2018-06-22T23:51:36.520Z,55.80
2018-06-22T23:54:06.143Z,55.70
2018-06-22T23:59:04.821Z,55.60
